Arrowsmith, Illinois
Current Conditions -  °F | °C
As of 9:56 AM on Sunday 21 Dec 2014 (Local Time) from KBMI Reporting Station
Haze Haze  
Wind Chill: 25°   Ceiling: 3300
Heat Index: 35°   Visibility: 5mi
Dew Point: 32°   Wind: 15mph
Humidity: 89%   Direction: 170°S
Pressure: 30.2"   Gusts: NA
Location:  40.45°N, 88.63°W
Report Text: KBMI 211556Z 17013KT 5SM BR OVC033 02/00 A3020 RMK AO2 T00160000 OVC V BKN SLP243
Loading
Personal Weather Stations






























Interactive Weather Map New forecast layout! Learn more

10-Day Weather Forecast

Advertisements
Track Severe Weather on mobile